Huvudsida
METAR-TAF:

METAR-TAF

Flygplatser :

Alghero-Fertilia flygplats

Alghero, Italien

latitud: 40-38N, longitud: 008-17E, höjd: 23 m

Aktuellt väderrapport

Denna rapport gjordes för 35 minuter sedan, klockan 16:50 UTC
Vind 7 kt från syd/sydväst
Temperatur 15°C
Fuktighet 88%
Tryck 1020 hPa
Sikt 10 km eller mer
Spridda moln på en höjd av 1600 ft

METAR: LIEA 241650Z 20007KT 9999 SCT016 15/13 Q1020

Tid: 18:25 (17:25 UTC)

Väderprognos

Denna rapport gjordes för 6 timmar och 25 minuter sedan, klockan 11:00 UTC
Prognos gäller från 24 kl. 12 UTC till 25 kl. 12 UTC
Vind 10 kt från syd
Sikt 10 km eller mer
Spridda moln på en höjd av 4000 ft
Temporärt
från 24 kl. 12 UTC till 24 kl. 18 UTC
regn
Blir
från 24 kl. 18 UTC till 24 kl. 20 UTC
Vind 5 kt varierande vindriktning

TAF: LIEA 241100Z 2412/2512 19010KT 9999 SCT040 TEMPO 2412/2418 RA BECMG 2418/2420 VRB05KT

Aktuella väderrapporter och prognoser från 4000 flygplatser (METAR- och TAF-rapporter).

De tillgängliga stationerna syns som gula och röda prickar på kartan.

För musen över prickarna för att se namnen på stationerna.

Klicka sedan för att få väderrapporter och prognoser.

För att ändra kartan: Klicka på de gröna knapparna med ett svart kors på för att zooma in; den gröna knappen med ett streck på för att zooma ut; eller på de gröna pilarna för angränsande kartor.


METAR-TAF: